createdAt,value
2018-02-12T00:00:33.758Z,6.55
2018-02-12T00:03:02.119Z,8.13
2018-02-12T00:05:30.423Z,8.18
2018-02-12T00:07:59.487Z,8.77
2018-02-12T00:10:27.828Z,7.10
2018-02-12T00:12:56.135Z,12.32
2018-02-12T00:15:24.454Z,8.00
2018-02-12T00:17:52.823Z,9.32
2018-02-12T00:20:21.904Z,4.90
2018-02-12T00:22:50.207Z,5.15
2018-02-12T00:25:18.546Z,7.53
2018-02-12T00:27:46.863Z,12.00
2018-02-12T00:30:15.162Z,8.15
2018-02-12T00:32:43.611Z,5.18
2018-02-12T00:35:11.923Z,7.10
2018-02-12T00:37:40.219Z,7.50
2018-02-12T00:40:08.580Z,12.80
2018-02-12T00:42:36.891Z,16.83
2018-02-12T00:45:05.211Z,8.80
2018-02-12T00:47:33.567Z,5.90
2018-02-12T00:50:02.308Z,9.10
2018-02-12T00:52:30.609Z,11.10
2018-02-12T00:54:59.801Z,4.37
2018-02-12T00:57:28.111Z,7.35
2018-02-12T00:59:57.192Z,11.15
2018-02-12T01:02:25.523Z,2.95
2018-02-12T01:04:53.824Z,5.57
2018-02-12T01:07:22.192Z,3.30
2018-02-12T01:09:50.495Z,3.40
2018-02-12T01:12:18.804Z,6.90
2018-02-12T01:14:47.915Z,4.65
2018-02-12T01:17:16.228Z,5.35
2018-02-12T01:19:44.538Z,5.18
2018-02-12T01:22:12.899Z,4.78
2018-02-12T01:24:41.203Z,4.15
2018-02-12T01:27:10.271Z,3.80
2018-02-12T01:29:38.639Z,4.05
2018-02-12T01:32:07.448Z,5.13
2018-02-12T01:34:35.771Z,3.30
2018-02-12T01:37:04.102Z,7.00
2018-02-12T01:39:32.419Z,4.20
2018-02-12T01:42:00.727Z,5.17
2018-02-12T01:44:29.539Z,3.43
2018-02-12T01:46:57.839Z,4.43
2018-02-12T01:49:26.163Z,9.57
2018-02-12T01:51:54.511Z,2.23
2018-02-12T01:54:23.571Z,3.23
2018-02-12T01:56:51.879Z,4.70
2018-02-12T01:59:20.264Z,7.83
2018-02-12T02:01:48.579Z,8.90
2018-02-12T02:04:16.955Z,7.10
2018-02-12T02:06:45.306Z,2.90
2018-02-12T02:09:13.635Z,3.87
2018-02-12T02:11:41.953Z,3.60
2018-02-12T02:14:10.323Z,5.60
2018-02-12T02:16:38.643Z,5.35
2018-02-12T02:19:06.943Z,7.03
2018-02-12T02:21:35.308Z,4.77
2018-02-12T02:24:04.323Z,5.20
2018-02-12T02:26:32.626Z,6.30
2018-02-12T02:29:01.759Z,8.77
2018-02-12T02:31:30.157Z,4.90
2018-02-12T02:33:59.261Z,4.67
2018-02-12T02:36:27.731Z,6.83
2018-02-12T02:38:56.404Z,5.30
2018-02-12T02:41:24.713Z,5.43
2018-02-12T02:43:53.344Z,10.10
2018-02-12T02:46:21.651Z,7.20
2018-02-12T02:48:49.955Z,13.25
2018-02-12T02:51:18.307Z,5.62
2018-02-12T02:53:46.629Z,3.55
2018-02-12T02:56:14.996Z,3.75
2018-02-12T02:58:43.355Z,4.72
2018-02-12T03:01:11.945Z,5.60
2018-02-12T03:03:41.306Z,6.43
2018-02-12T03:06:10.112Z,5.60
2018-02-12T03:08:38.721Z,6.60
2018-02-12T03:11:07.378Z,5.90
2018-02-12T03:13:36.077Z,7.50
2018-02-12T03:16:04.615Z,7.70
2018-02-12T03:18:39.236Z,8.55
2018-02-12T03:21:07.798Z,6.67
2018-02-12T03:23:36.111Z,8.85
2018-02-12T03:26:04.467Z,5.60
2018-02-12T03:28:32.771Z,3.67
2018-02-12T03:31:01.768Z,7.27
2018-02-12T03:33:30.099Z,8.77
2018-02-12T03:35:58.401Z,7.90
2018-02-12T03:38:26.708Z,7.00
2018-02-12T03:40:55.081Z,12.13
2018-02-12T03:43:23.384Z,9.70
2018-02-12T03:45:52.668Z,9.43
2018-02-12T03:48:21.213Z,5.37
2018-02-12T03:50:49.534Z,6.00
2018-02-12T03:53:17.849Z,6.62
2018-02-12T03:55:46.401Z,6.68
2018-02-12T03:58:14.707Z,4.18
2018-02-12T04:00:43.052Z,5.20
2018-02-12T04:03:11.460Z,6.55
2018-02-12T04:05:40.528Z,6.43
2018-02-12T04:08:08.834Z,6.03
2018-02-12T04:10:37.595Z,6.30
2018-02-12T04:13:05.899Z,5.62
2018-02-12T04:15:34.301Z,5.15
2018-02-12T04:18:02.674Z,5.00
2018-02-12T04:20:31.751Z,3.05
2018-02-12T04:23:00.285Z,4.20
2018-02-12T04:25:28.823Z,5.10
2018-02-12T04:27:57.140Z,5.43
2018-02-12T04:30:25.445Z,3.17
2018-02-12T04:32:53.952Z,9.40
2018-02-12T04:35:23.036Z,5.83
2018-02-12T04:37:51.495Z,3.40
2018-02-12T04:40:20.488Z,5.07
2018-02-12T04:42:48.795Z,5.07
2018-02-12T04:45:17.108Z,5.57
2018-02-12T04:47:45.463Z,3.37
2018-02-12T04:50:14.540Z,3.40
2018-02-12T04:52:42.844Z,3.83
2018-02-12T04:55:11.981Z,3.20
2018-02-12T04:57:40.296Z,4.60
2018-02-12T05:00:08.611Z,3.97
2018-02-12T05:02:37.023Z,3.80
2018-02-12T05:05:05.345Z,8.83
2018-02-12T05:07:33.643Z,8.90
2018-02-12T05:10:02.008Z,4.17
2018-02-12T05:12:30.315Z,4.35
2018-02-12T05:14:58.629Z,7.28
2018-02-12T05:17:27.004Z,5.17
2018-02-12T05:19:55.307Z,7.43
2018-02-12T05:22:24.259Z,5.80
2018-02-12T05:24:53.671Z,3.40
2018-02-12T05:27:21.975Z,8.33
2018-02-12T05:29:50.276Z,3.90
2018-02-12T05:32:18.618Z,3.60
2018-02-12T05:34:46.940Z,10.50
2018-02-12T05:37:15.247Z,6.63
2018-02-12T05:39:43.630Z,8.70
2018-02-12T05:42:11.982Z,5.00
2018-02-12T05:44:40.335Z,9.63
2018-02-12T05:47:09.496Z,6.75
2018-02-12T05:49:37.804Z,8.27
2018-02-12T05:52:06.207Z,13.98
2018-02-12T05:54:34.543Z,7.73
2018-02-12T05:57:02.852Z,6.67
2018-02-12T05:59:31.224Z,4.60
2018-02-12T06:02:00.299Z,6.60
2018-02-12T06:04:28.611Z,4.43
2018-02-12T06:06:56.995Z,3.10
2018-02-12T06:09:25.352Z,16.17
2018-02-12T06:11:54.439Z,10.05
2018-02-12T06:14:23.551Z,9.10
2018-02-12T06:16:52.619Z,5.18
2018-02-12T06:19:20.932Z,7.12
2018-02-12T06:21:49.285Z,4.78
2018-02-12T06:24:17.598Z,4.75
2018-02-12T06:26:45.912Z,11.98
2018-02-12T06:29:14.266Z,4.30
2018-02-12T06:31:42.571Z,4.05
2018-02-12T06:34:10.876Z,4.72
2018-02-12T06:36:39.208Z,5.80
2018-02-12T06:39:07.511Z,4.70
2018-02-12T06:41:35.851Z,3.47
2018-02-12T06:44:04.387Z,3.42
2018-02-12T06:46:32.691Z,4.65
2018-02-12T06:49:01.013Z,3.28
2018-02-12T06:51:29.368Z,3.50
2018-02-12T06:53:57.783Z,4.45
2018-02-12T06:56:26.147Z,6.18
2018-02-12T06:58:54.455Z,6.93
2018-02-12T07:01:22.825Z,7.85
2018-02-12T07:03:51.168Z,3.33
2018-02-12T07:06:19.488Z,7.50
2018-02-12T07:08:47.803Z,5.00
2018-02-12T07:11:16.144Z,7.93
2018-02-12T07:13:44.461Z,4.03
2018-02-12T07:16:12.784Z,8.02
2018-02-12T07:18:41.133Z,4.50
2018-02-12T07:21:09.432Z,3.12
2018-02-12T07:23:37.755Z,5.20
2018-02-12T07:26:06.859Z,3.75
2018-02-12T07:28:35.171Z,5.87
2018-02-12T07:31:03.487Z,7.75
2018-02-12T07:33:31.886Z,8.52
2018-02-12T07:36:00.204Z,5.72
2018-02-12T07:38:28.516Z,3.95
2018-02-12T07:40:56.912Z,4.80
2018-02-12T07:43:25.227Z,3.95
2018-02-12T07:45:53.531Z,4.12
2018-02-12T07:48:21.974Z,4.85
2018-02-12T07:50:50.284Z,6.93
2018-02-12T07:53:18.596Z,5.28
2018-02-12T07:55:46.948Z,3.87
2018-02-12T07:58:15.251Z,4.53
2018-02-12T08:00:44.320Z,4.90
2018-02-12T08:03:12.656Z,5.43
2018-02-12T08:05:40.971Z,5.70
2018-02-12T08:08:09.281Z,9.33
2018-02-12T08:10:37.632Z,4.90
2018-02-12T08:13:05.922Z,4.97
2018-02-12T08:15:34.992Z,6.53
2018-02-12T08:18:04.131Z,6.67
2018-02-12T08:20:32.438Z,7.73
2018-02-12T08:23:00.748Z,4.90
2018-02-12T08:25:29.098Z,7.87
2018-02-12T08:27:57.408Z,5.47
2018-02-12T08:30:25.711Z,9.80
2018-02-12T08:32:54.156Z,5.17
2018-02-12T08:35:22.455Z,4.17
2018-02-12T08:37:50.747Z,4.30
2018-02-12T08:40:19.082Z,4.70
2018-02-12T08:42:47.388Z,3.20
2018-02-12T08:45:15.688Z,5.37
2018-02-12T08:47:44.053Z,10.17
2018-02-12T08:50:13.120Z,6.67
2018-02-12T08:52:41.424Z,2.57
2018-02-12T08:55:10.563Z,4.33
2018-02-12T08:57:38.868Z,5.07
2018-02-12T09:00:07.166Z,4.90
2018-02-12T09:02:35.529Z,4.67
2018-02-12T09:05:03.836Z,5.25
2018-02-12T09:07:32.159Z,7.10
2018-02-12T09:10:00.624Z,2.80
2018-02-12T09:12:28.983Z,3.30
2018-02-12T09:14:57.299Z,5.43
2018-02-12T09:17:25.665Z,6.25
2018-02-12T09:19:53.971Z,2.03
2018-02-12T09:22:22.284Z,6.17
2018-02-12T09:24:50.727Z,3.30
2018-02-12T09:27:19.032Z,4.90
2018-02-12T09:29:47.340Z,4.67
2018-02-12T09:32:15.684Z,3.00
2018-02-12T09:34:43.978Z,2.47
2018-02-12T09:37:13.075Z,4.17
2018-02-12T09:39:41.640Z,4.23
2018-02-12T09:42:09.958Z,8.80
2018-02-12T09:44:38.258Z,2.60
2018-02-12T09:47:06.603Z,5.03
2018-02-12T09:49:34.908Z,3.63
2018-02-12T09:52:03.215Z,3.40
2018-02-12T09:54:31.571Z,3.90
2018-02-12T09:56:59.887Z,5.03
2018-02-12T09:59:28.960Z,4.27
2018-02-12T10:01:57.683Z,3.93
2018-02-12T10:04:25.978Z,3.73
2018-02-12T10:06:54.295Z,6.47
2018-02-12T10:09:22.620Z,2.20
2018-02-12T10:11:50.931Z,2.50
2018-02-12T10:14:20.208Z,6.00
2018-02-12T10:16:48.508Z,3.43
2018-02-12T10:19:16.827Z,4.77
2018-02-12T10:21:45.957Z,5.03
2018-02-12T10:24:14.263Z,2.57
2018-02-12T10:26:42.577Z,8.60
2018-02-12T10:29:10.908Z,3.73
2018-02-12T10:31:39.217Z,3.20
2018-02-12T10:34:07.519Z,4.23
2018-02-12T10:36:36.627Z,2.73
2018-02-12T10:39:04.926Z,2.87
2018-02-12T10:41:33.223Z,4.17
2018-02-12T10:44:01.552Z,2.77
2018-02-12T10:46:29.862Z,2.80
2018-02-12T10:48:58.228Z,3.00
2018-02-12T10:51:26.543Z,5.27
2018-02-12T10:53:54.866Z,2.87
2018-02-12T10:56:23.212Z,1.80
2018-02-12T10:58:51.519Z,3.70
2018-02-12T11:01:19.829Z,5.13
2018-02-12T11:03:48.177Z,7.73
2018-02-12T11:06:16.476Z,7.30
2018-02-12T11:08:44.784Z,3.80
2018-02-12T11:11:13.173Z,5.90
2018-02-12T11:13:41.479Z,10.37
2018-02-12T11:16:09.794Z,2.70
2018-02-12T11:18:38.439Z,2.93
2018-02-12T11:21:06.768Z,2.23
2018-02-12T11:23:35.073Z,12.97
2018-02-12T11:26:03.796Z,3.80
2018-02-12T11:28:32.096Z,3.60
2018-02-12T11:31:00.405Z,5.30
2018-02-12T11:33:28.776Z,2.90
2018-02-12T11:35:57.088Z,3.20
2018-02-12T11:38:26.160Z,6.83
2018-02-12T11:40:54.520Z,4.90
2018-02-12T11:43:22.838Z,3.30
2018-02-12T11:45:51.150Z,7.83
2018-02-12T11:48:19.659Z,2.87
2018-02-12T11:50:47.979Z,5.30
2018-02-12T11:53:16.289Z,8.50
2018-02-12T11:55:44.648Z,3.10
2018-02-12T11:58:12.952Z,3.87
2018-02-12T12:00:41.249Z,2.73
2018-02-12T12:03:09.963Z,4.17
2018-02-12T12:05:38.263Z,4.93
2018-02-12T12:08:07.342Z,4.03
2018-02-12T12:10:36.467Z,3.43
2018-02-12T12:13:04.840Z,2.40
2018-02-12T12:15:33.139Z,8.40
2018-02-12T12:18:01.491Z,9.03
2018-02-12T12:20:29.800Z,2.23
2018-02-12T12:22:58.096Z,2.87
2018-02-12T12:25:26.468Z,4.30
2018-02-12T12:27:54.776Z,3.10
2018-02-12T12:30:23.080Z,2.70
2018-02-12T12:32:51.431Z,2.57
2018-02-12T12:35:19.727Z,3.13
2018-02-12T12:37:48.036Z,5.10
2018-02-12T12:40:16.698Z,3.67
2018-02-12T12:42:45.016Z,3.83
2018-02-12T12:45:13.316Z,4.40
2018-02-12T12:47:41.651Z,2.30
2018-02-12T12:50:09.956Z,2.73
2018-02-12T12:52:38.267Z,4.67
2018-02-12T12:55:06.638Z,2.40
2018-02-12T12:57:35.708Z,3.60
2018-02-12T13:00:04.007Z,5.23
2018-02-12T13:02:32.365Z,3.63
2018-02-12T13:05:00.676Z,2.37
2018-02-12T13:07:28.976Z,1.83
2018-02-12T13:09:57.342Z,2.70
2018-02-12T13:12:25.655Z,4.03
2018-02-12T13:14:53.967Z,3.53
2018-02-12T13:17:22.321Z,3.43
2018-02-12T13:19:50.627Z,3.53
2018-02-12T13:22:18.932Z,4.20
2018-02-12T13:24:47.288Z,9.70
2018-02-12T13:27:15.609Z,3.50
2018-02-12T13:29:43.911Z,7.10
2018-02-12T13:32:12.263Z,4.63
2018-02-12T13:34:40.560Z,3.87
2018-02-12T13:37:08.859Z,2.50
2018-02-12T13:39:37.221Z,5.90
2018-02-12T13:42:05.554Z,8.23
2018-02-12T13:44:33.872Z,5.53
2018-02-12T13:47:02.260Z,13.60
2018-02-12T13:49:30.562Z,7.07
2018-02-12T13:51:59.636Z,6.57
2018-02-12T13:54:27.985Z,3.20
2018-02-12T13:56:56.303Z,6.33
2018-02-12T13:59:24.607Z,3.43
2018-02-12T14:01:53.035Z,3.00
2018-02-12T14:04:21.331Z,3.60
2018-02-12T14:06:49.632Z,5.13
2018-02-12T14:09:18.056Z,2.83
2018-02-12T14:11:48.108Z,3.37
2018-02-12T14:14:16.425Z,3.40
2018-02-12T14:16:45.426Z,4.00
2018-02-12T14:19:13.735Z,3.60
2018-02-12T14:21:42.027Z,3.50
2018-02-12T14:24:10.486Z,6.53
2018-02-12T14:26:38.776Z,6.27
2018-02-12T14:29:07.084Z,7.83
2018-02-12T14:31:36.203Z,13.10
2018-02-12T14:34:04.504Z,7.20
2018-02-12T14:36:33.040Z,8.57
2018-02-12T14:39:01.424Z,14.07
2018-02-12T14:41:30.507Z,6.63
2018-02-12T14:43:58.831Z,6.77
2018-02-12T14:46:27.190Z,13.05
2018-02-12T14:48:55.501Z,5.90
2018-02-12T14:51:23.807Z,5.57
2018-02-12T14:53:52.162Z,3.73
2018-02-12T14:56:20.520Z,7.37
2018-02-12T14:58:48.799Z,2.77
2018-02-12T15:01:17.140Z,7.90
2018-02-12T15:03:46.205Z,7.40
2018-02-12T15:06:14.519Z,9.25
2018-02-12T15:08:42.883Z,4.95
2018-02-12T15:11:11.231Z,8.80
2018-02-12T15:13:39.528Z,9.10
2018-02-12T15:16:08.440Z,5.25
2018-02-12T15:18:37.508Z,18.20
2018-02-12T15:21:05.820Z,9.00
2018-02-12T15:23:34.935Z,5.77
2018-02-12T15:26:03.240Z,6.18
2018-02-12T15:28:31.547Z,11.73
2018-02-12T15:30:59.948Z,9.80
2018-02-12T15:33:28.618Z,7.03
2018-02-12T15:35:56.938Z,10.18
2018-02-12T15:38:25.307Z,10.48
2018-02-12T15:40:53.603Z,9.33
2018-02-12T15:43:21.918Z,8.02
2018-02-12T15:45:50.255Z,7.45
2018-02-12T15:48:18.579Z,6.05
2018-02-12T15:50:46.930Z,10.73
2018-02-12T15:53:15.280Z,15.00
2018-02-12T15:55:43.584Z,5.60
2018-02-12T15:58:11.891Z,6.07
2018-02-12T16:00:40.268Z,4.75
2018-02-12T16:03:08.599Z,13.52
2018-02-12T16:05:36.912Z,6.03
2018-02-12T16:08:05.278Z,6.13
2018-02-12T16:10:33.583Z,6.43
2018-02-12T16:13:02.672Z,11.17
2018-02-12T16:15:31.861Z,5.95
2018-02-12T16:18:00.195Z,3.45
2018-02-12T16:20:28.500Z,7.47
2018-02-12T16:22:56.870Z,3.40
2018-02-12T16:25:25.177Z,5.70
2018-02-12T16:27:53.488Z,6.47
2018-02-12T16:30:21.852Z,4.07
2018-02-12T16:32:50.156Z,4.93
2018-02-12T16:35:18.459Z,3.20
2018-02-12T16:37:46.822Z,4.28
2018-02-12T16:40:15.131Z,13.05
2018-02-12T16:42:43.440Z,3.45
2018-02-12T16:45:11.806Z,6.07
2018-02-12T16:47:40.126Z,5.95
2018-02-12T16:50:08.482Z,6.35
2018-02-12T16:52:36.899Z,9.05
2018-02-12T16:55:05.195Z,7.07
2018-02-12T16:57:33.503Z,5.65
2018-02-12T17:00:02.639Z,6.03
2018-02-12T17:02:30.951Z,7.45
2018-02-12T17:04:59.269Z,4.50
2018-02-12T17:07:27.604Z,5.95
2018-02-12T17:09:55.919Z,4.03
2018-02-12T17:12:24.235Z,11.73
2018-02-12T17:14:52.582Z,3.15
2018-02-12T17:17:20.885Z,4.85
2018-02-12T17:19:49.203Z,5.00
2018-02-12T17:22:17.531Z,5.67
2018-02-12T17:24:45.848Z,3.70
2018-02-12T17:27:14.235Z,3.60
2018-02-12T17:29:42.550Z,5.30
2018-02-12T17:32:10.868Z,5.47
2018-02-12T17:34:39.312Z,7.43
2018-02-12T17:37:07.611Z,9.05
2018-02-12T17:39:35.915Z,4.23
2018-02-12T17:42:04.264Z,9.60
2018-02-12T17:44:32.576Z,5.77
2018-02-12T17:47:00.932Z,5.47
2018-02-12T17:49:29.276Z,7.70
2018-02-12T17:51:57.573Z,11.20
2018-02-12T17:54:25.947Z,7.55
2018-02-12T17:56:54.264Z,3.35
2018-02-12T17:59:22.578Z,7.12
2018-02-12T18:01:50.939Z,18.08
2018-02-12T18:04:20.020Z,6.20
2018-02-12T18:06:48.340Z,9.05
2018-02-12T18:09:16.795Z,11.98
2018-02-12T18:11:45.879Z,7.10
2018-02-12T18:14:14.187Z,5.85
2018-02-12T18:16:42.576Z,5.87
2018-02-12T18:19:10.895Z,17.73
2018-02-12T18:21:39.208Z,8.70
2018-02-12T18:24:08.440Z,7.30
2018-02-12T18:26:36.795Z,7.35
2018-02-12T18:29:05.444Z,8.23
2018-02-12T18:31:33.803Z,10.57
2018-02-12T18:34:02.125Z,14.87
2018-02-12T18:36:30.464Z,12.82
2018-02-12T18:38:58.847Z,9.55
2018-02-12T18:41:27.160Z,28.77
2018-02-12T18:43:55.500Z,15.02
2018-02-12T18:46:24.659Z,14.43
2018-02-12T18:48:53.006Z,8.02
2018-02-12T18:51:21.378Z,9.13
2018-02-12T18:53:49.904Z,9.98
2018-02-12T18:56:18.520Z,10.60
2018-02-12T18:58:46.836Z,14.43
2018-02-12T19:01:15.201Z,9.43
2018-02-12T19:03:43.526Z,8.20
2018-02-12T19:06:11.850Z,15.48
2018-02-12T19:08:40.212Z,7.97
2018-02-12T19:11:08.529Z,9.15
2018-02-12T19:13:36.872Z,17.10
2018-02-12T19:16:05.184Z,11.43
2018-02-12T19:18:33.499Z,11.48
2018-02-12T19:21:01.863Z,9.98
2018-02-12T19:23:30.172Z,8.98
2018-02-12T19:25:58.488Z,9.32
2018-02-12T19:28:27.619Z,8.35
2018-02-12T19:30:55.927Z,10.55
2018-02-12T19:33:24.247Z,16.62
2018-02-12T19:35:52.608Z,10.15
2018-02-12T19:38:21.680Z,8.65
2018-02-12T19:40:49.995Z,10.60
2018-02-12T19:43:19.120Z,10.88
2018-02-12T19:45:47.446Z,9.13
2018-02-12T19:48:15.801Z,16.52
2018-02-12T19:50:44.954Z,15.43
2018-02-12T19:53:13.272Z,13.02
2018-02-12T19:55:41.584Z,7.93
2018-02-12T19:58:09.976Z,8.50
2018-02-12T20:00:38.294Z,14.93
2018-02-12T20:03:07.073Z,11.82
2018-02-12T20:05:35.435Z,13.35
2018-02-12T20:08:04.507Z,7.80
2018-02-12T20:10:33.631Z,9.50
2018-02-12T20:13:03.035Z,13.02
2018-02-12T20:15:31.364Z,10.55
2018-02-12T20:17:59.671Z,8.88
2018-02-12T20:20:28.043Z,7.37
2018-02-12T20:22:56.356Z,10.50
2018-02-12T20:25:24.673Z,15.27
2018-02-12T20:27:53.418Z,11.38
2018-02-12T20:30:21.744Z,10.25
2018-02-12T20:32:50.137Z,15.43
2018-02-12T20:35:19.267Z,10.57
2018-02-12T20:37:47.594Z,16.52
2018-02-12T20:40:15.935Z,13.15
2018-02-12T20:42:44.299Z,11.63
2018-02-12T20:45:12.620Z,12.48
2018-02-12T20:47:40.940Z,12.60
2018-02-12T20:50:09.287Z,12.45
2018-02-12T20:52:37.607Z,9.45
2018-02-12T20:55:05.949Z,12.80
2018-02-12T20:57:34.320Z,9.23
2018-02-12T21:00:02.644Z,10.95
2018-02-12T21:02:30.972Z,12.48
2018-02-12T21:04:59.863Z,12.73
2018-02-12T21:07:28.184Z,10.32
2018-02-12T21:09:56.511Z,13.05
2018-02-12T21:12:24.868Z,17.62
2018-02-12T21:14:53.226Z,22.35
2018-02-12T21:17:21.538Z,15.80
2018-02-12T21:19:49.892Z,19.50
2018-02-12T21:22:18.216Z,9.32
2018-02-12T21:24:46.545Z,14.63
2018-02-12T21:27:14.928Z,16.20
2018-02-12T21:29:43.251Z,18.30
2018-02-12T21:32:11.591Z,18.20
2018-02-12T21:34:40.317Z,17.90
2018-02-12T21:37:09.400Z,17.48
2018-02-12T21:39:37.721Z,23.90
2018-02-12T21:42:06.109Z,20.05
2018-02-12T21:44:34.453Z,14.60
2018-02-12T21:47:03.553Z,22.10
2018-02-12T21:49:32.693Z,17.27
2018-02-12T21:52:01.013Z,14.10
2018-02-12T21:54:29.340Z,18.40
2018-02-12T21:56:57.920Z,24.50
2018-02-12T21:59:26.252Z,17.62
2018-02-12T22:01:54.572Z,16.33
2018-02-12T22:04:22.956Z,14.70
2018-02-12T22:06:51.279Z,13.00
2018-02-12T22:09:19.614Z,16.80
2018-02-12T22:11:47.975Z,15.23
2018-02-12T22:14:16.304Z,14.82
2018-02-12T22:16:44.631Z,16.73
2018-02-12T22:19:12.972Z,11.12
2018-02-12T22:21:41.296Z,10.48
2018-02-12T22:24:10.424Z,16.62
2018-02-12T22:26:38.755Z,13.88
2018-02-12T22:29:07.132Z,11.05
2018-02-12T22:31:36.218Z,11.45
2018-02-12T22:34:05.291Z,13.75
2018-02-12T22:36:33.595Z,8.15
2018-02-12T22:39:03.116Z,9.75
2018-02-12T22:41:31.424Z,9.38
2018-02-12T22:43:59.736Z,17.92
2018-02-12T22:46:28.116Z,17.90
2018-02-12T22:48:57.207Z,12.35
2018-02-12T22:51:25.515Z,14.90
2018-02-12T22:53:54.630Z,15.02
2018-02-12T22:56:22.943Z,18.05
2018-02-12T22:58:51.312Z,13.77
2018-02-12T23:01:19.651Z,18.20
2018-02-12T23:03:47.968Z,17.00
2018-02-12T23:06:16.620Z,15.25
2018-02-12T23:08:44.940Z,15.10
2018-02-12T23:11:13.255Z,14.98
2018-02-12T23:13:41.599Z,14.35
2018-02-12T23:16:09.920Z,17.92
2018-02-12T23:18:38.237Z,21.02
2018-02-12T23:21:06.623Z,16.02
2018-02-12T23:23:35.726Z,16.92
2018-02-12T23:26:04.044Z,13.57
2018-02-12T23:28:32.391Z,13.38
2018-02-12T23:31:00.699Z,14.77
2018-02-12T23:33:29.309Z,20.17
2018-02-12T23:35:57.675Z,14.82
2018-02-12T23:38:25.989Z,20.10
2018-02-12T23:40:54.307Z,18.67
2018-02-12T23:43:23.558Z,19.70
2018-02-12T23:45:51.903Z,22.52
2018-02-12T23:48:20.227Z,20.92
2018-02-12T23:50:48.605Z,15.48
2018-02-12T23:53:16.920Z,14.30
2018-02-12T23:55:46.004Z,20.15
2018-02-12T23:58:15.111Z,17.95
